Time;durP1;ratioP1;P1;durP2;ratioP2;P2;SDS_P1;SDS_P2;PMS_P1;PMS_P2;Temp;Humidity;BMP_temperature;BMP_pressure;BME280_temperature;BME280_humidity;BME280_pressure;Samples;Min_cycle;Max_cycle;Signal;HPM_P1;HPM_P2
2022/12/03 00:02:03;;;;;;;70.43;29.93;;;-0.50;99.90;;;;;;5029827;28;20778;-70
2022/12/03 00:04:29;;;;;;;66.80;29.77;;;-0.40;99.90;;;;;;5025734;28;20214;-73
2022/12/03 00:06:55;;;;;;;55.23;27.53;;;-0.30;99.90;;;;;;5027738;28;20246;-71
2022/12/03 00:09:20;;;;;;;59.93;28.93;;;-0.30;99.90;;;;;;5026235;28;20633;-71
2022/12/03 00:11:46;;;;;;;61.33;29.57;;;-0.40;99.90;;;;;;5025870;28;20264;-72
2022/12/03 00:14:12;;;;;;;59.10;28.90;;;-0.50;99.90;;;;;;5028431;28;20205;-71
2022/12/03 00:16:37;;;;;;;60.50;29.13;;;-0.40;99.90;;;;;;5025222;28;20708;-71
2022/12/03 00:19:03;;;;;;;58.47;29.53;;;-0.40;99.90;;;;;;5030237;28;20274;-71
2022/12/03 00:21:28;;;;;;;64.43;30.93;;;-0.50;99.90;;;;;;5028219;28;20297;-71
2022/12/03 00:23:54;;;;;;;59.40;29.63;;;-0.50;99.90;;;;;;5021852;28;20184;-71
2022/12/03 00:26:20;;;;;;;55.63;28.47;;;-0.50;99.90;;;;;;5031221;28;20288;-70
2022/12/03 00:28:45;;;;;;;58.00;28.07;;;-0.50;99.90;;;;;;5027043;28;20213;-71
2022/12/03 00:31:11;;;;;;;62.40;27.63;;;-0.50;99.90;;;;;;5023315;28;20220;-71
2022/12/03 00:33:37;;;;;;;56.00;27.80;;;-0.60;99.90;;;;;;5027951;28;20217;-70
2022/12/03 00:36:02;;;;;;;54.40;26.80;;;-0.60;99.90;;;;;;5025091;28;20209;-71
2022/12/03 00:38:28;;;;;;;55.83;28.87;;;-0.60;99.90;;;;;;5031008;28;20732;-71
2022/12/03 00:40:54;;;;;;;58.67;28.47;;;-0.50;99.90;;;;;;5025858;28;20221;-71
2022/12/03 00:43:19;;;;;;;63.50;29.87;;;-0.50;99.90;;;;;;5026576;28;20225;-70
2022/12/03 00:45:45;;;;;;;57.83;28.77;;;-0.50;99.90;;;;;;5024458;28;20263;-71
2022/12/03 00:48:10;;;;;;;60.57;28.23;;;-0.50;99.90;;;;;;5029562;28;20236;-71
2022/12/03 00:50:36;;;;;;;56.87;27.93;;;-0.50;99.90;;;;;;5028997;28;20198;-70
2022/12/03 00:53:02;;;;;;;54.43;28.17;;;-0.50;99.90;;;;;;5028032;28;20264;-70
2022/12/03 00:55:27;;;;;;;56.17;28.27;;;-0.40;99.90;;;;;;5028737;28;20745;-71
2022/12/03 00:57:53;;;;;;;62.33;31.37;;;-0.40;99.90;;;;;;5027544;28;20229;-71
2022/12/03 01:00:23;;;;;;;55.77;28.97;;;-0.50;99.90;;;;;;5026945;28;20600;-74
2022/12/03 01:02:49;;;;;;;57.77;29.57;;;-0.40;99.90;;;;;;5025732;28;20181;-70
2022/12/03 01:05:15;;;;;;;58.70;28.80;;;-0.40;99.90;;;;;;5022657;28;20214;-71
2022/12/03 01:07:40;;;;;;;58.67;29.37;;;-0.50;99.90;;;;;;5029832;28;20312;-70
2022/12/03 01:10:06;;;;;;;65.77;29.97;;;-0.50;99.90;;;;;;5024060;28;20208;-71
2022/12/03 01:12:32;;;;;;;60.27;29.17;;;-0.50;99.90;;;;;;5022716;28;20216;-71
2022/12/03 01:14:58;;;;;;;51.93;28.67;;;-0.50;99.90;;;;;;5027321;28;20179;-74
2022/12/03 01:17:23;;;;;;;56.97;27.70;;;-0.40;99.90;;;;;;5028623;28;20210;-71
2022/12/03 01:19:51;;;;;;;61.57;30.23;;;-0.50;99.90;;;;;;5026026;28;20639;-71
2022/12/03 01:22:17;;;;;;;60.77;29.57;;;-0.50;99.90;;;;;;5027033;28;20289;-72
2022/12/03 01:24:43;;;;;;;59.27;29.53;;;-0.60;99.90;;;;;;5023854;28;20209;-71
2022/12/03 01:27:08;;;;;;;67.80;31.27;;;-0.50;99.90;;;;;;5021137;28;20190;-70
2022/12/03 01:29:34;;;;;;;57.83;29.93;;;-0.50;99.90;;;;;;5028941;28;20227;-71
2022/12/03 01:32:18;;;;;;;57.53;28.17;;;-0.50;99.90;;;;;;5021371;28;20210;-71
2022/12/03 01:34:54;;;;;;;54.60;30.50;;;-0.50;99.90;;;;;;5025332;28;20292;-71
2022/12/03 01:37:22;;;;;;;61.93;29.47;;;-0.60;99.90;;;;;;5024036;28;20309;-71
2022/12/03 01:39:48;;;;;;;54.93;28.27;;;-0.60;99.90;;;;;;5022270;28;20703;-71
2022/12/03 01:42:25;;;;;;;65.80;30.57;;;-0.50;99.90;;;;;;5027042;28;20361;-70
2022/12/03 01:44:57;;;;;;;58.80;30.83;;;-0.60;99.90;;;;;;5024332;28;20668;-70
2022/12/03 01:47:34;;;;;;;60.07;29.57;;;-0.50;99.90;;;;;;5026283;28;20254;-71
2022/12/03 01:50:21;;;;;;;62.97;30.80;;;-0.50;99.90;;;;;;5023631;28;20213;-70
2022/12/03 01:52:47;;;;;;;72.07;32.43;;;-0.60;99.90;;;;;;5023423;28;20247;-71
2022/12/03 01:55:17;;;;;;;63.63;30.93;;;-0.60;99.90;;;;;;5028419;28;20245;-71
2022/12/03 01:57:46;;;;;;;65.13;31.30;;;-0.60;99.90;;;;;;5021614;28;20579;-72
2022/12/03 02:00:16;;;;;;;62.50;30.43;;;-0.60;99.90;;;;;;5024671;28;20243;-71
2022/12/03 02:02:43;;;;;;;62.53;31.27;;;-0.50;99.90;;;;;;5024562;28;20184;-70
2022/12/03 02:05:19;;;;;;;59.73;30.17;;;-0.50;99.90;;;;;;5022412;28;20238;-70
2022/12/03 02:07:44;;;;;;;65.10;32.27;;;-0.40;99.90;;;;;;5023607;28;20219;-71
2022/12/03 02:10:12;;;;;;;65.53;32.37;;;-0.40;99.90;;;;;;5024101;28;20270;-71
2022/12/03 02:12:47;;;;;;;64.97;32.67;;;-0.40;99.90;;;;;;5023456;28;20238;-72
2022/12/03 02:15:13;;;;;;;63.67;31.17;;;-0.50;99.90;;;;;;5027150;28;20194;-70
2022/12/03 02:17:39;;;;;;;63.20;30.97;;;-0.60;99.90;;;;;;5024060;28;20184;-71
2022/12/03 02:20:07;;;;;;;65.17;32.37;;;-0.50;99.90;;;;;;5023383;28;20208;-71
2022/12/03 02:22:44;;;;;;;64.07;31.07;;;-0.50;99.90;;;;;;5028828;28;20318;-71
2022/12/03 02:25:24;;;;;;;60.10;30.83;;;-0.50;99.90;;;;;;5025551;28;20213;-70
2022/12/03 02:27:53;;;;;;;63.77;31.80;;;-0.50;99.90;;;;;;5024693;28;20235;-70
2022/12/03 02:30:23;;;;;;;59.03;29.47;;;-0.50;99.90;;;;;;5024610;28;20202;-72
2022/12/03 02:32:50;;;;;;;64.03;31.37;;;-0.50;99.90;;;;;;5019908;28;20181;-72
2022/12/03 02:35:25;;;;;;;61.63;30.90;;;-0.50;99.90;;;;;;5027261;28;20213;-70
2022/12/03 02:37:56;;;;;;;66.13;30.67;;;-0.50;99.90;;;;;;5022089;28;20222;-71
2022/12/03 02:40:26;;;;;;;60.23;30.23;;;-0.50;99.90;;;;;;5025453;28;20320;-71
2022/12/03 02:42:55;;;;;;;60.87;30.03;;;-0.50;99.90;;;;;;5025719;28;20217;-71
2022/12/03 02:45:41;;;;;;;55.20;28.63;;;-0.50;99.90;;;;;;5022657;28;20200;-70
2022/12/03 02:48:10;;;;;;;58.43;28.47;;;-0.50;99.90;;;;;;5027084;28;20297;-71
2022/12/03 02:50:41;;;;;;;66.00;30.00;;;-0.50;99.90;;;;;;5022768;28;20224;-71
2022/12/03 02:53:12;;;;;;;58.93;30.37;;;-0.50;99.90;;;;;;5020759;28;20249;-72
2022/12/03 02:55:39;;;;;;;60.87;30.30;;;-0.60;99.90;;;;;;5025671;28;20220;-71
2022/12/03 02:58:05;;;;;;;57.83;27.97;;;-0.50;99.90;;;;;;5022323;28;20218;-70
2022/12/03 03:00:31;;;;;;;61.57;30.47;;;-0.50;99.90;;;;;;5022040;28;20235;-70
2022/12/03 03:02:57;;;;;;;62.83;28.97;;;-0.60;99.90;;;;;;5025587;28;20268;-70
2022/12/03 03:05:23;;;;;;;57.27;31.00;;;-0.50;99.90;;;;;;5023933;28;20316;-71
2022/12/03 03:07:50;;;;;;;61.03;29.60;;;-0.50;99.90;;;;;;5024583;28;20220;-71
2022/12/03 03:10:20;;;;;;;55.97;28.17;;;-0.50;99.90;;;;;;5024862;28;20212;-72
2022/12/03 03:12:46;;;;;;;53.73;29.50;;;-0.50;99.90;;;;;;5018671;28;20216;-71
2022/12/03 03:15:12;;;;;;;58.23;29.37;;;-0.50;99.90;;;;;;5017674;28;20271;-74
2022/12/03 03:17:38;;;;;;;59.40;30.17;;;-0.50;99.90;;;;;;5021843;28;20177;-73
2022/12/03 03:20:08;;;;;;;54.60;28.03;;;-0.50;99.90;;;;;;5017142;28;20215;-71
2022/12/03 03:22:39;;;;;;;62.03;31.43;;;-0.50;99.90;;;;;;5048750;23;20316;-73
2022/12/03 03:25:06;;;;;;;62.23;31.03;;;-0.50;99.90;;;;;;5024515;28;20213;-73
2022/12/03 03:27:33;;;;;;;61.33;30.50;;;-0.60;99.90;;;;;;5025922;28;20239;-72
2022/12/03 03:29:59;;;;;;;60.97;29.27;;;-0.60;99.90;;;;;;5028523;28;20181;-74
2022/12/03 03:32:26;;;;;;;58.60;29.00;;;-0.60;99.90;;;;;;5022100;28;20222;-73
2022/12/03 03:34:52;;;;;;;63.80;29.13;;;-0.60;99.90;;;;;;5020800;28;20205;-71
2022/12/03 03:37:18;;;;;;;62.63;31.30;;;-0.50;99.90;;;;;;5021719;28;20231;-74
2022/12/03 03:39:44;;;;;;;62.27;28.80;;;-0.60;99.90;;;;;;5020588;28;20310;-73
2022/12/03 03:42:10;;;;;;;64.13;29.57;;;-0.70;99.90;;;;;;5024929;28;20205;-74
2022/12/03 03:44:36;;;;;;;67.97;31.40;;;-0.60;99.90;;;;;;5023594;28;20179;-73
2022/12/03 03:47:01;;;;;;;60.10;28.90;;;-0.60;99.90;;;;;;5020019;28;20215;-74
2022/12/03 03:49:27;;;;;;;57.80;28.43;;;-0.50;99.90;;;;;;5020334;28;20227;-73
2022/12/03 03:51:54;;;;;;;66.60;32.17;;;-0.50;99.90;;;;;;5020848;28;20225;-71
2022/12/03 03:54:20;;;;;;;62.37;31.23;;;-0.60;99.90;;;;;;5021850;28;20699;-71
2022/12/03 03:56:46;;;;;;;63.07;30.33;;;-0.50;99.90;;;;;;5027827;28;20238;-74
2022/12/03 03:59:12;;;;;;;63.17;30.83;;;-0.50;99.90;;;;;;5021998;28;20213;-74
2022/12/03 04:01:38;;;;;;;62.10;29.33;;;-0.50;99.90;;;;;;5020358;28;20220;-74
2022/12/03 04:04:07;;;;;;;58.83;30.07;;;-0.50;99.90;;;;;;5021400;28;20222;-74
2022/12/03 04:06:33;;;;;;;58.50;29.70;;;-0.50;99.90;;;;;;5025532;28;20221;-74
2022/12/03 04:08:58;;;;;;;58.97;30.03;;;-0.40;99.90;;;;;;5025265;28;20202;-74
2022/12/03 04:14:08;;;;;;;61.00;29.47;;;-0.50;99.90;;;;;;5023763;28;20265;-72
2022/12/03 04:16:33;;;;;;;59.97;29.93;;;-0.50;99.90;;;;;;5028707;28;20590;-74
2022/12/03 04:18:59;;;;;;;62.17;30.70;;;-0.60;99.90;;;;;;5021084;28;20216;-74
2022/12/03 04:24:10;;;;;;;60.97;29.83;;;-0.60;99.90;;;;;;5023291;28;20215;-74
2022/12/03 04:29:20;;;;;;;67.33;31.73;;;-0.50;99.90;;;;;;5018339;28;20445;-73
2022/12/03 04:37:15;;;;;;;62.97;32.40;;;-0.60;99.90;;;;;;5019730;28;20608;-74
2022/12/03 04:39:40;;;;;;;56.27;28.87;;;-0.60;99.90;;;;;;5022565;28;20211;-74
2022/12/03 04:42:06;;;;;;;61.67;30.27;;;-0.50;99.90;;;;;;5025244;28;20302;-74
2022/12/03 04:44:34;;;;;;;59.90;31.13;;;-0.40;99.90;;;;;;5023903;28;20212;-74
2022/12/03 04:47:17;;;;;;;58.00;29.20;;;-0.50;99.90;;;;;;5022148;28;20205;-74
2022/12/03 04:49:45;;;;;;;57.83;29.77;;;-0.40;99.90;;;;;;5022131;28;20213;-71
2022/12/03 04:52:13;;;;;;;60.77;29.83;;;-0.40;99.90;;;;;;5024595;28;20279;-74
2022/12/03 04:54:39;;;;;;;67.47;30.60;;;-0.50;99.90;;;;;;5019537;28;20263;-74
2022/12/03 04:57:06;;;;;;;63.90;30.83;;;-0.50;99.90;;;;;;5021160;28;20267;-74
2022/12/03 04:59:32;;;;;;;58.30;29.63;;;-0.60;99.90;;;;;;5024165;28;20208;-74
2022/12/03 05:01:58;;;;;;;59.37;28.93;;;-0.60;99.90;;;;;;5023154;28;20214;-73
2022/12/03 05:04:24;;;;;;;58.10;30.37;;;-0.60;99.90;;;;;;5026365;28;20278;-74
2022/12/03 05:06:49;;;;;;;61.03;29.63;;;-0.60;99.90;;;;;;5021025;28;20206;-74
2022/12/03 05:09:15;;;;;;;56.80;29.63;;;-0.60;99.90;;;;;;5019757;28;20207;-71
2022/12/03 05:11:41;;;;;;;62.43;31.00;;;-0.60;99.90;;;;;;5026254;28;20703;-74
2022/12/03 05:14:08;;;;;;;54.87;29.77;;;-0.50;99.90;;;;;;5022549;28;20339;-72
2022/12/03 05:16:34;;;;;;;58.90;31.00;;;-0.50;99.90;;;;;;5019618;28;20841;-72
2022/12/03 05:19:00;;;;;;;60.37;30.77;;;-0.50;99.90;;;;;;5020154;28;20285;-73
2022/12/03 05:21:26;;;;;;;60.40;31.30;;;-0.40;99.90;;;;;;5023884;28;20343;-72
2022/12/03 05:23:51;;;;;;;59.07;29.70;;;-0.60;99.90;;;;;;5028642;28;20243;-71
2022/12/03 05:26:17;;;;;;;59.10;29.03;;;-0.60;99.90;;;;;;5026349;28;20216;-72
2022/12/03 05:28:43;;;;;;;63.67;30.40;;;-0.50;99.90;;;;;;5030141;28;20215;-72
2022/12/03 05:31:08;;;;;;;63.93;28.60;;;-0.50;99.90;;;;;;5026845;28;20587;-74
2022/12/03 05:33:34;;;;;;;68.70;30.73;;;-0.40;99.90;;;;;;5025153;28;20209;-73
2022/12/03 05:36:00;;;;;;;59.37;29.40;;;-0.50;99.90;;;;;;5024769;28;20617;-73
2022/12/03 05:38:25;;;;;;;58.80;30.33;;;-0.50;99.90;;;;;;5024441;28;20216;-73
2022/12/03 05:40:51;;;;;;;61.30;32.17;;;-0.50;99.90;;;;;;5021558;28;20292;-72
2022/12/03 05:43:17;;;;;;;55.97;29.73;;;-0.50;99.90;;;;;;5030111;28;20239;-72
2022/12/03 05:45:43;;;;;;;63.40;31.80;;;-0.50;99.90;;;;;;5028640;28;20215;-70
2022/12/03 05:48:11;;;;;;;57.10;29.60;;;-0.40;99.90;;;;;;5021835;28;20691;-73
2022/12/03 05:50:39;;;;;;;62.77;30.77;;;-0.50;99.90;;;;;;5029725;28;20186;-73
2022/12/03 05:53:04;;;;;;;65.10;30.33;;;-0.50;99.90;;;;;;5025142;28;20234;-73
2022/12/03 05:55:30;;;;;;;60.93;31.50;;;-0.50;99.90;;;;;;5026439;28;20262;-73
2022/12/03 05:57:56;;;;;;;59.07;30.03;;;-0.60;99.90;;;;;;5027149;28;20212;-73
2022/12/03 06:00:27;;;;;;;62.63;32.10;;;-0.60;99.90;;;;;;5025161;28;20311;-73
2022/12/03 06:02:53;;;;;;;61.10;30.93;;;-0.60;99.90;;;;;;5019886;28;20221;-72
2022/12/03 06:05:19;;;;;;;66.30;32.33;;;-0.60;99.90;;;;;;5026599;28;20213;-72
2022/12/03 06:07:46;;;;;;;63.87;31.20;;;-0.60;99.90;;;;;;5024920;28;20204;-72
2022/12/03 06:10:15;;;;;;;64.60;32.23;;;-0.70;99.90;;;;;;5025664;28;20215;-73
2022/12/03 06:12:41;;;;;;;68.60;33.07;;;-0.70;99.90;;;;;;5022992;28;20208;-72
2022/12/03 06:15:07;;;;;;;65.70;32.63;;;-0.70;99.90;;;;;;5022538;28;20247;-72
2022/12/03 06:17:33;;;;;;;69.10;33.93;;;-0.80;99.90;;;;;;5029498;28;20239;-73
2022/12/03 06:19:59;;;;;;;71.90;33.33;;;-0.80;99.90;;;;;;5023547;28;20206;-72
2022/12/03 06:22:24;;;;;;;69.90;33.80;;;-0.80;99.90;;;;;;5023747;28;20739;-73
2022/12/03 06:24:50;;;;;;;68.50;32.90;;;-0.90;99.90;;;;;;5026976;28;20208;-72
2022/12/03 06:27:16;;;;;;;65.77;31.40;;;-0.80;99.90;;;;;;5023504;28;20203;-72
2022/12/03 06:29:41;;;;;;;75.07;35.47;;;-0.80;99.90;;;;;;5031411;28;20207;-73
2022/12/03 06:32:07;;;;;;;72.27;33.93;;;-0.80;99.90;;;;;;5035556;28;20213;-73
2022/12/03 06:34:33;;;;;;;66.43;32.67;;;-0.80;99.90;;;;;;5028707;28;20734;-75
2022/12/03 06:36:59;;;;;;;68.83;32.13;;;-0.90;99.90;;;;;;5022941;28;20204;-74
2022/12/03 06:39:25;;;;;;;71.43;33.80;;;-0.90;99.90;;;;;;5026976;28;20186;-74
2022/12/03 06:41:50;;;;;;;71.83;33.63;;;-0.90;99.90;;;;;;5021707;28;20284;-73
2022/12/03 06:44:16;;;;;;;71.87;34.53;;;-0.90;99.90;;;;;;5025498;28;20690;-73
2022/12/03 06:46:41;;;;;;;76.57;34.87;;;-0.90;99.90;;;;;;5027893;28;20599;-74
2022/12/03 06:49:10;;;;;;;72.07;33.27;;;-0.90;99.90;;;;;;5024394;28;20383;-74
2022/12/03 06:51:36;;;;;;;77.33;33.43;;;-0.90;99.90;;;;;;5032035;28;20224;-74
2022/12/03 06:54:03;;;;;;;67.83;32.30;;;-0.90;99.90;;;;;;5038438;28;20185;-72
2022/12/03 06:56:29;;;;;;;69.27;33.97;;;-0.80;99.90;;;;;;5038124;28;20212;-73
2022/12/03 06:58:54;;;;;;;71.27;33.63;;;-0.80;99.90;;;;;;5036411;28;20236;-73
2022/12/03 07:01:20;;;;;;;68.63;33.17;;;-0.80;99.90;;;;;;5035587;28;20212;-72
2022/12/03 07:03:46;;;;;;;73.73;34.97;;;-0.80;99.90;;;;;;5033481;28;20212;-72
2022/12/03 07:06:12;;;;;;;72.70;33.97;;;-0.90;99.90;;;;;;5035251;28;20244;-72
2022/12/03 07:08:37;;;;;;;69.87;32.90;;;-0.90;99.90;;;;;;5035388;28;20244;-74
2022/12/03 07:11:03;;;;;;;73.13;35.20;;;-0.90;99.90;;;;;;5029161;28;20221;-73
2022/12/03 07:13:29;;;;;;;79.87;34.83;;;-0.90;99.90;;;;;;5035395;28;20215;-72
2022/12/03 07:15:55;;;;;;;76.07;35.37;;;-0.80;99.90;;;;;;5030563;28;20219;-73
2022/12/03 07:18:20;;;;;;;68.50;31.53;;;-1.00;99.90;;;;;;5040648;28;20195;-74
2022/12/03 07:20:46;;;;;;;73.07;33.80;;;-0.90;99.90;;;;;;5039058;28;20179;-76
2022/12/03 07:23:11;;;;;;;78.67;35.17;;;-1.00;99.90;;;;;;5040267;28;20288;-74
2022/12/03 07:25:37;;;;;;;70.87;34.93;;;-1.00;99.90;;;;;;5048642;28;20212;-73
2022/12/03 07:28:03;;;;;;;77.67;35.57;;;-0.90;99.90;;;;;;5041684;28;20220;-74
2022/12/03 07:30:28;;;;;;;67.03;32.20;;;-0.90;99.90;;;;;;5046339;28;20219;-74
2022/12/03 07:32:54;;;;;;;72.93;35.00;;;-1.00;99.90;;;;;;5043995;28;20205;-73
2022/12/03 07:35:20;;;;;;;68.37;33.73;;;-0.90;99.90;;;;;;5045202;28;20202;-74
2022/12/03 07:37:46;;;;;;;74.10;33.10;;;-1.00;99.90;;;;;;5043713;28;20220;-74
2022/12/03 07:40:12;;;;;;;69.20;34.20;;;-0.90;99.90;;;;;;5039558;28;20237;-75
2022/12/03 07:42:37;;;;;;;72.27;33.43;;;-1.00;99.90;;;;;;5044806;28;20217;-72
2022/12/03 07:45:03;;;;;;;77.80;34.33;;;-1.00;99.90;;;;;;5042853;28;20270;-74
2022/12/03 07:47:29;;;;;;;71.47;35.17;;;-0.90;99.90;;;;;;5042731;28;20216;-73
2022/12/03 07:49:55;;;;;;;71.10;34.17;;;-1.00;99.90;;;;;;5038087;28;20312;-72
2022/12/03 07:52:20;;;;;;;74.53;36.27;;;-1.00;99.90;;;;;;5046615;28;20237;-74
2022/12/03 07:54:46;;;;;;;76.33;34.70;;;-1.00;99.90;;;;;;5041020;28;20272;-73
2022/12/03 07:57:11;;;;;;;70.70;33.20;;;-1.00;99.90;;;;;;5041008;28;20197;-73
2022/12/03 07:59:37;;;;;;;68.63;33.93;;;-0.90;99.90;;;;;;5045984;28;20185;-74
2022/12/03 08:02:03;;;;;;;73.03;34.43;;;-0.90;99.90;;;;;;5039496;28;20209;-74
2022/12/03 08:04:28;;;;;;;72.47;35.13;;;-0.90;99.90;;;;;;5046131;28;20222;-74
2022/12/03 08:06:54;;;;;;;68.30;33.67;;;-1.00;99.90;;;;;;5041810;28;20217;-73
2022/12/03 08:09:20;;;;;;;65.53;32.13;;;-0.90;99.90;;;;;;5038683;28;20582;-73
2022/12/03 08:11:47;;;;;;;70.00;32.60;;;-0.90;99.90;;;;;;5041873;28;20201;-74
2022/12/03 08:14:16;;;;;;;64.00;32.60;;;-0.90;99.90;;;;;;5046582;28;20208;-74
2022/12/03 08:16:43;;;;;;;68.33;32.60;;;-0.90;99.90;;;;;;5034974;28;20213;-73
2022/12/03 08:19:11;;;;;;;72.30;32.50;;;-0.80;99.90;;;;;;5040665;28;20225;-74
2022/12/03 08:21:37;;;;;;;74.60;33.60;;;-0.80;99.90;;;;;;5035221;28;20218;-72
2022/12/03 08:24:15;;;;;;;70.70;34.27;;;-0.90;99.90;;;;;;5039708;28;20210;-74
2022/12/03 08:26:44;;;;;;;70.13;33.23;;;-0.80;99.90;;;;;;5033646;28;20204;-74
2022/12/03 08:29:13;;;;;;;71.73;34.83;;;-0.70;99.90;;;;;;5027636;28;20218;-72
2022/12/03 08:31:39;;;;;;;65.57;33.03;;;-0.80;99.90;;;;;;5034567;28;20308;-74
2022/12/03 08:34:14;;;;;;;71.33;33.03;;;-0.80;99.90;;;;;;5031427;28;20220;-74
2022/12/03 08:36:39;;;;;;;77.10;34.27;;;-0.80;99.90;;;;;;5038842;28;20202;-74
2022/12/03 08:39:39;;;;;;;72.33;34.90;;;-0.80;99.90;;;;;;5043143;28;20188;-74
2022/12/03 08:45:29;;;;;;;81.47;34.67;;;-0.80;99.90;;;;;;5028553;28;20297;-75
2022/12/03 08:47:55;;;;;;;78.13;34.27;;;-0.90;99.90;;;;;;5029289;28;20207;-73
2022/12/03 08:50:34;;;;;;;76.33;37.43;;;-0.90;99.90;;;;;;5023429;28;20218;-72
2022/12/03 08:53:31;;;;;;;71.43;34.37;;;-1.00;99.90;;;;;;5028190;28;20216;-74
2022/12/03 08:56:18;;;;;;;72.13;36.40;;;-0.90;99.90;;;;;;5020933;28;20275;-74
2022/12/03 08:58:47;;;;;;;73.20;33.83;;;-0.90;99.90;;;;;;5029149;28;20224;-73
2022/12/03 09:01:12;;;;;;;76.13;35.33;;;-0.80;99.90;;;;;;5028383;28;20308;-75
2022/12/03 09:03:51;;;;;;;75.20;35.17;;;-0.80;99.90;;;;;;5025025;28;20757;-75
2022/12/03 09:06:16;;;;;;;77.53;35.77;;;-0.90;99.90;;;;;;5028540;28;20192;-75
2022/12/03 09:08:42;;;;;;;76.20;35.73;;;-0.90;99.90;;;;;;5026501;28;20675;-74
2022/12/03 09:11:08;;;;;;;70.50;33.47;;;-0.80;99.90;;;;;;5020541;28;20221;-75
2022/12/03 09:13:33;;;;;;;71.53;33.10;;;-0.80;99.90;;;;;;5027291;28;20220;-75
2022/12/03 09:15:59;;;;;;;70.50;33.73;;;-0.80;99.90;;;;;;5023978;28;20209;-74
2022/12/03 09:18:25;;;;;;;76.17;34.47;;;-0.70;99.90;;;;;;5024463;28;20299;-74
2022/12/03 09:20:50;;;;;;;78.43;34.70;;;-0.70;99.90;;;;;;5028538;28;20182;-73
2022/12/03 09:23:16;;;;;;;73.83;34.23;;;-0.70;99.90;;;;;;5039603;23;20242;-73
2022/12/03 09:25:41;;;;;;;74.93;32.80;;;-0.70;99.90;;;;;;5024369;28;20239;-71
2022/12/03 09:28:07;;;;;;;74.93;34.23;;;-0.70;99.90;;;;;;5024679;28;20218;-71
2022/12/03 09:30:33;;;;;;;74.47;33.80;;;-0.70;99.90;;;;;;5021853;28;20203;-73
2022/12/03 09:32:59;;;;;;;70.50;33.73;;;-0.60;99.90;;;;;;5022050;28;20259;-72
2022/12/03 09:35:25;;;;;;;70.13;33.77;;;-0.40;99.90;;;;;;5026911;28;20207;-71
2022/12/03 09:37:51;;;;;;;72.60;34.30;;;-0.40;99.90;;;;;;5020608;28;20215;-71
2022/12/03 09:40:17;;;;;;;71.43;32.93;;;-0.50;99.90;;;;;;5028029;28;20240;-73
2022/12/03 09:42:43;;;;;;;69.60;33.63;;;-0.50;99.90;;;;;;5024372;28;20402;-71
2022/12/03 09:45:11;;;;;;;68.97;33.10;;;-0.50;99.90;;;;;;5022305;28;20182;-71
2022/12/03 09:47:45;;;;;;;70.93;32.30;;;-0.50;99.90;;;;;;5029887;28;20259;-70
2022/12/03 09:50:14;;;;;;;76.70;34.07;;;-0.40;99.90;;;;;;5023594;28;20210;-70
2022/12/03 09:52:40;;;;;;;69.90;32.23;;;-0.40;99.90;;;;;;5027320;28;20222;-70
2022/12/03 09:55:14;;;;;;;73.43;34.37;;;-0.40;99.90;;;;;;5025065;28;20206;-70
2022/12/03 09:57:40;;;;;;;70.37;31.97;;;-0.30;99.90;;;;;;5025149;28;20260;-72
2022/12/03 10:00:15;;;;;;;69.13;32.83;;;-0.40;99.90;;;;;;5027369;28;20189;-70
2022/12/03 10:02:41;;;;;;;67.83;31.37;;;-0.60;99.90;;;;;;5024318;28;20331;-70
2022/12/03 10:05:08;;;;;;;73.00;31.93;;;-0.60;99.90;;;;;;5021931;28;20219;-70
2022/12/03 10:07:33;;;;;;;78.00;36.27;;;-0.60;99.90;;;;;;5028237;28;20352;-72
2022/12/03 10:09:59;;;;;;;68.47;33.20;;;-0.60;99.90;;;;;;5020633;28;20687;-73
2022/12/03 10:12:24;;;;;;;69.60;34.43;;;-0.60;99.90;;;;;;5029240;28;20734;-70
2022/12/03 10:14:52;;;;;;;69.47;33.27;;;-0.60;99.90;;;;;;5025221;28;20218;-70
2022/12/03 10:17:17;;;;;;;74.33;33.43;;;-0.60;99.90;;;;;;5022247;28;20591;-70
2022/12/03 10:19:43;;;;;;;72.27;33.87;;;-0.50;99.90;;;;;;5025813;28;20209;-70
2022/12/03 10:22:09;;;;;;;70.37;30.87;;;-0.60;99.90;;;;;;5024638;28;20244;-70
2022/12/03 10:24:36;;;;;;;64.80;30.40;;;-0.60;99.90;;;;;;5021819;28;20730;-71
2022/12/03 10:27:21;;;;;;;72.17;33.07;;;-0.50;99.90;;;;;;5026632;28;20241;-70
2022/12/03 10:29:58;;;;;;;76.00;35.83;;;-0.60;99.90;;;;;;5021876;28;20230;-71
2022/12/03 10:32:26;;;;;;;76.03;34.70;;;-0.50;99.90;;;;;;5023187;28;20234;-70
2022/12/03 10:35:09;;;;;;;71.37;32.87;;;-0.60;99.90;;;;;;5023935;28;20221;-70
2022/12/03 10:37:34;;;;;;;78.77;34.27;;;-0.60;99.90;;;;;;5022607;28;20201;-70
2022/12/03 10:40:04;;;;;;;70.90;31.80;;;-0.60;99.90;;;;;;5026972;28;20200;-70
2022/12/03 10:42:35;;;;;;;72.97;32.07;;;-0.60;99.90;;;;;;5028845;28;20603;-72
2022/12/03 10:45:06;;;;;;;67.90;31.67;;;-0.60;99.90;;;;;;5020126;28;20620;-71
2022/12/03 10:47:32;;;;;;;72.20;33.23;;;-0.60;99.90;;;;;;5026468;28;20224;-71
2022/12/03 10:50:03;;;;;;;71.17;30.70;;;-0.60;99.90;;;;;;5019912;28;20225;-71
2022/12/03 10:52:29;;;;;;;70.13;32.03;;;-0.60;99.90;;;;;;5023032;28;20212;-71
2022/12/03 10:54:55;;;;;;;72.93;33.43;;;-0.50;99.90;;;;;;5025519;28;20299;-71
2022/12/03 10:57:22;;;;;;;71.90;31.30;;;-0.50;99.90;;;;;;5024540;28;20232;-73
2022/12/03 10:59:47;;;;;;;71.87;30.60;;;-0.50;99.90;;;;;;5022765;28;20187;-71
2022/12/03 11:02:23;;;;;;;65.33;29.10;;;-0.50;99.90;;;;;;5026299;28;20204;-73
2022/12/03 11:04:50;;;;;;;68.00;31.83;;;-0.50;99.90;;;;;;5020915;28;20315;-70
2022/12/03 11:07:20;;;;;;;69.37;30.10;;;-0.50;99.90;;;;;;5025136;28;20213;-71
2022/12/03 11:09:50;;;;;;;74.13;31.53;;;-0.50;99.90;;;;;;5025929;28;20243;-71
2022/12/03 11:12:22;;;;;;;73.40;31.57;;;-0.40;99.90;;;;;;5022468;28;20183;-71
2022/12/03 11:14:47;;;;;;;75.17;30.33;;;-0.40;99.90;;;;;;5024694;28;20257;-71
2022/12/03 11:17:46;;;;;;;71.93;30.97;;;-0.50;99.90;;;;;;5024150;28;20290;-71
2022/12/03 11:20:24;;;;;;;78.97;31.77;;;-0.50;99.90;;;;;;5024032;28;20219;-71
2022/12/03 11:22:51;;;;;;;76.50;33.33;;;-0.50;99.90;;;;;;5023234;28;20785;-72
2022/12/03 11:25:25;;;;;;;65.97;30.60;;;-0.50;99.90;;;;;;5023029;28;20214;-71
2022/12/03 11:28:12;;;;;;;82.00;34.47;;;-0.40;99.90;;;;;;5024232;28;20231;-71
2022/12/03 11:30:50;;;;;;;69.83;30.30;;;-0.40;99.90;;;;;;5022108;28;20214;-72
2022/12/03 11:33:21;;;;;;;72.93;32.87;;;-0.40;99.90;;;;;;5022035;28;20221;-71
2022/12/03 11:36:02;;;;;;;68.17;31.30;;;-0.40;99.90;;;;;;5023801;28;20181;-73
2022/12/03 11:38:36;;;;;;;75.50;32.37;;;-0.30;99.90;;;;;;5026088;28;20209;-71
2022/12/03 11:41:19;;;;;;;69.90;30.50;;;-0.20;99.90;;;;;;5025260;28;20611;-71
2022/12/03 11:43:51;;;;;;;72.80;31.03;;;-0.20;99.90;;;;;;5023796;28;20237;-70
2022/12/03 11:46:26;;;;;;;71.73;30.57;;;-0.30;99.90;;;;;;5018776;28;20217;-71
2022/12/03 11:48:54;;;;;;;72.77;29.40;;;-0.30;99.90;;;;;;5020881;28;20225;-71
2022/12/03 11:51:23;;;;;;;65.97;29.60;;;-0.20;99.90;;;;;;5021937;28;20208;-73
2022/12/03 11:53:50;;;;;;;63.30;29.87;;;-0.30;99.90;;;;;;5020587;28;20260;-71
2022/12/03 11:56:27;;;;;;;70.77;30.83;;;-0.30;99.90;;;;;;5024324;28;20228;-71
2022/12/03 11:59:01;;;;;;;70.80;30.43;;;-0.20;99.90;;;;;;5023223;28;20207;-72
2022/12/03 12:01:38;;;;;;;59.50;27.70;;;-0.20;99.90;;;;;;5023803;28;20209;-71
2022/12/03 12:04:04;;;;;;;71.43;30.13;;;-0.20;99.90;;;;;;5025888;28;20351;-72
2022/12/03 12:06:40;;;;;;;74.17;32.13;;;-0.20;99.90;;;;;;5024339;28;20288;-72
2022/12/03 12:09:05;;;;;;;69.37;31.30;;;-0.10;99.90;;;;;;5030213;28;20216;-71
2022/12/03 12:11:37;;;;;;;73.53;31.57;;;0.00;99.90;;;;;;5027083;28;20218;-73
2022/12/03 12:14:11;;;;;;;72.53;32.73;;;-0.10;99.90;;;;;;5026187;28;20654;-72
2022/12/03 12:16:44;;;;;;;68.63;29.67;;;-0.10;99.90;;;;;;5031258;28;20719;-71
2022/12/03 12:19:37;;;;;;;70.70;31.57;;;-0.10;99.90;;;;;;5025041;28;20213;-72
2022/12/03 12:22:21;;;;;;;66.00;28.43;;;0.00;99.90;;;;;;5027057;28;20204;-71
2022/12/03 12:24:59;;;;;;;70.07;30.70;;;0.00;99.90;;;;;;5025647;28;20706;-71
2022/12/03 12:27:39;;;;;;;68.97;29.73;;;-0.10;99.90;;;;;;5027482;28;20192;-72
2022/12/03 12:30:17;;;;;;;66.80;29.47;;;-0.10;99.90;;;;;;5027569;28;20211;-71
2022/12/03 12:32:51;;;;;;;62.87;28.27;;;-0.10;99.90;;;;;;5028951;28;20955;-70
2022/12/03 12:35:21;;;;;;;66.00;31.83;;;-0.10;99.90;;;;;;5028928;28;20213;-71
2022/12/03 12:38:14;;;;;;;74.60;30.73;;;-0.20;99.90;;;;;;5026148;28;20585;-71
2022/12/03 12:40:43;;;;;;;74.73;30.93;;;-0.20;99.90;;;;;;5026282;28;20732;-71
2022/12/03 12:43:30;;;;;;;66.57;29.33;;;-0.10;99.90;;;;;;5027896;28;20221;-73
2022/12/03 12:46:00;;;;;;;71.60;33.67;;;-0.10;99.90;;;;;;5019334;28;20211;-71
2022/12/03 12:48:30;;;;;;;70.80;31.80;;;0.00;99.90;;;;;;5027297;28;20201;-74
2022/12/03 12:50:58;;;;;;;75.13;32.63;;;-0.20;99.90;;;;;;5026771;28;20190;-71
2022/12/03 12:53:33;;;;;;;70.33;29.63;;;-0.10;99.90;;;;;;5030243;28;20210;-71